Latest Weather Observations for Lake Macquarie - Cooranbong

IDN60801

Issued at 4:32 pm EST Thursday 24 August 2017 (issued every 30 minutes, with the page automatically refreshed every 10 minutes)

About weather observations | Map of weather stations | Latest weather observations for NSW | Other Formats
Station Details ID: 061412 Name: LAKE MACQUARIE AWS Lat: -33.09 Lon: 151.46 Height: 6.0 m
Data from the previous 72 hours. | See also: Recent months at Lake Macquarie - Cooranbong
Date/Time
EST
Temp
°C
App
Temp
°C
Dew
Point
°C
Rel
Hum
%
Delta-T
°C
Wind Press
QNH
hPa
Press
MSL
hPa
Rain since
9am
mm
Dir  Spd
km/h
Gust
km/h
Spd
kts
Gust
kts
24/04:30pm 15.4 13.6 7.9 61 3.7 S 7 19 4 10 1017.6 1017.6 0.0
24/04:00pm 15.7 13.5 7.7 59 4.0 S 9 15 5 8 1017.4 1017.4 0.0
24/03:30pm 16.3 14.1 8.0 58 4.2 S 9 22 5 12 1017.1 1017.1 0.0
24/03:00pm 16.7 14.4 9.1 61 3.9 SSE 11 22 6 12 1016.8 1016.8 0.0
24/02:30pm 17.1 14.5 9.3 60 4.1 SSE 13 30 7 16 1016.6 1016.6 0.0
24/02:00pm 18.0 15.6 8.8 55 4.8 S 11 26 6 14 1016.4 1016.4 0.0
24/01:30pm 16.9 14.6 7.5 54 4.7 SSE 9 17 5 9 1016.4 1016.4 0.0
24/01:00pm 18.1 15.6 4.7 41 6.4 SSW 7 13 4 7 1016.3 1016.3 0.0
24/12:30pm 18.5 16.1 5.4 42 6.4 SSW 7 13 4 7 1016.5 1016.5 0.0
24/12:00pm 18.7 15.8 4.8 40 6.7 S 9 17 5 9 1016.8 1016.8 0.0
24/11:30am 17.9 15.2 5.8 45 5.9 SW 9 17 5 9 1017.1 1017.1 0.0
24/11:00am 18.0 15.7 5.6 44 6.0 SW 7 13 4 7 1017.5 1017.5 0.0
24/10:30am 17.2 14.0 4.9 44 5.9 WSW 11 20 6 11 1017.7 1017.7 0.0
24/10:00am 17.1 13.8 4.4 43 6.0 WSW 11 22 6 12 1017.7 1017.7 0.0
24/09:30am 16.3 13.8 5.0 47 5.4 SW 7 20 4 11 1017.7 1017.7 0.0
24/09:00am 15.1 12.9 6.1 55 4.3 WSW 7 15 4 8 1017.6 1017.6 0.0
24/08:30am 12.9 12.5 9.9 82 1.5 SSE 2 7 1 4 1017.7 1017.7 0.0
24/08:00am 9.1 8.9 9.0 99 0.0 CALM 0 0 0 0 1017.6 1017.6 0.0
24/07:30am 6.6 5.8 6.5 99 0.0 CALM 0 0 0 0 1017.5 1017.5 0.0
24/07:00am 4.6 3.4 4.5 99 0.0 CALM 0 0 0 0 1017.4 1017.4 0.0
24/06:30am 4.5 3.2 4.2 98 0.1 CALM 0 0 0 0 1017.3 1017.3 0.0
24/06:00am 4.9 3.7 4.6 98 0.1 CALM 0 0 0 0 1017.0 1017.0 0.0
24/05:30am 5.0 3.8 4.7 98 0.1 CALM 0 0 0 0 1016.6 1016.6 0.0
24/05:00am 5.8 4.8 5.5 98 0.1 CALM 0 0 0 0 1016.3 1016.3 0.0
24/04:30am 6.0 5.0 5.7 98 0.1 CALM 0 0 0 0 1016.0 1016.0 0.0
24/04:00am 6.2 5.3 5.9 98 0.1 CALM 0 0 0 0 1015.8 1015.8 0.0
24/03:30am 6.7 5.9 6.4 98 0.1 CALM 0 0 0 0 1015.8 1015.8 0.0
24/03:00am 7.0 6.2 6.7 98 0.1 CALM 0 0 0 0 1015.7 1015.7 0.0
24/02:30am 6.9 6.1 6.6 98 0.1 CALM 0 0 0 0 1015.9 1015.9 0.0
24/02:00am 7.0 6.2 6.7 98 0.1 CALM 0 0 0 0 1015.9 1015.9 0.0
24/01:30am 7.2 6.5 6.9 98 0.1 CALM 0 0 0 0 1015.9 1015.9 0.0
24/01:00am 7.7 7.1 7.4 98 0.1 CALM 0 0 0 0 1016.1 1016.1 0.0
24/12:30am 7.8 7.2 7.5 98 0.1 CALM 0 2 0 1 1016.2 1016.2 0.0
24/12:00am 7.7 7.0 7.1 96 0.3 CALM 0 0 0 0 1016.4 1016.4 0.0
 
Date/Time
EST
Temp
°C
App
Temp
°C
Dew
Point
°C
Rel
Hum
%
Delta-T
°C
Wind Press
QNH
hPa
Press
MSL
hPa
Rain since
9am
mm
Dir  Spd
km/h
Gust
km/h
Spd
kts
Gust
kts
23/11:30pm 8.2 7.7 7.8 97 0.2 CALM 0 0 0 0 1016.3 1016.3 0.0
23/11:00pm 8.6 8.1 8.0 96 0.3 CALM 0 2 0 1 1016.2 1016.2 0.0
23/10:30pm 9.3 9.0 8.7 96 0.3 CALM 0 0 0 0 1016.2 1016.2 0.0
23/10:00pm 9.8 9.6 9.2 96 0.3 CALM 0 0 0 0 1016.2 1016.2 0.0
23/09:30pm 10.4 10.3 9.6 95 0.4 CALM 0 0 0 0 1016.3 1016.3 0.0
23/09:00pm 11.2 11.4 10.6 96 0.3 CALM 0 0 0 0 1016.4 1016.4 0.0
23/08:30pm 11.4 11.6 10.5 94 0.5 CALM 0 0 0 0 1016.4 1016.4 0.0
23/08:00pm 12.0 12.4 11.4 96 0.3 CALM 0 0 0 0 1016.4 1016.4 0.0
23/07:30pm 12.3 12.8 11.5 95 0.4 CALM 0 0 0 0 1016.3 1016.3 0.0
23/07:00pm 12.8 13.3 11.7 93 0.6 CALM 0 0 0 0 1016.1 1016.1 0.0
23/06:30pm 13.4 14.1 12.1 92 0.7 CALM 0 0 0 0 1016.0 1016.0 0.0
23/06:00pm 14.7 15.5 12.6 87 1.1 CALM 0 0 0 0 1015.9 1015.9 0.0
23/05:30pm 16.4 17.3 12.9 80 1.9 CALM 0 0 0 0 1015.7 1015.7 0.0
23/05:00pm 18.1 18.5 13.6 75 2.6 ESE 4 9 2 5 1015.7 1015.7 0.0
23/04:30pm 18.8 18.8 13.6 72 3.0 SE 6 11 3 6 1015.4 1015.4 0.0
23/04:00pm 19.1 18.4 13.1 68 3.4 ESE 9 15 5 8 1015.4 1015.4 0.0
23/03:30pm 19.3 17.9 12.3 64 3.9 ESE 11 17 6 9 1015.5 1015.5 0.0
23/03:00pm 19.8 17.7 11.0 57 4.8 E 13 20 7 11 1015.7 1015.7 0.0
23/02:30pm 20.6 18.4 10.7 53 5.4 ESE 13 19 7 10 1015.8 1015.8 0.0
23/02:00pm 20.9 19.0 10.4 51 5.7 ESE 11 17 6 9 1016.2 1016.2 0.0
23/01:30pm 20.3 18.3 10.1 52 5.5 ESE 11 19 6 10 1016.5 1016.5 0.0
23/01:00pm 20.6 18.8 10.7 53 5.4 ESE 11 15 6 8 1017.0 1017.0 0.0
23/12:30pm 20.9 19.8 10.7 52 5.6 NE 7 11 4 6 1017.5 1017.5 0.0
23/12:00pm 20.3 19.6 10.1 52 5.5 N 4 9 2 5 1018.0 1018.0 0.0
23/11:30am 20.2 19.6 10.3 53 5.3 NNE 4 7 2 4 1018.6 1018.6 0.0
23/11:00am 19.6 18.4 10.3 55 5.0 NNW 7 15 4 8 1019.1 1019.1 0.0
23/10:30am 18.7 17.6 10.8 60 4.3 N 7 15 4 8 1019.5 1019.5 0.0
23/10:00am 17.5 16.9 10.4 63 3.8 NNE 4 7 2 4 1019.8 1019.8 0.0
23/09:30am 15.8 15.8 9.9 68 3.1 CALM 0 4 0 2 1020.2 1020.2 0.0
23/09:00am 13.7 13.8 10.3 80 1.8 CALM 0 0 0 0 1020.4 1020.4 0.0
23/08:30am 10.2 9.9 8.6 90 0.8 CALM 0 0 0 0 1020.5 1020.5 0.0
23/08:00am 6.6 5.7 6.2 97 0.2 CALM 0 0 0 0 1020.8 1020.8 0.0
23/07:30am 4.3 3.0 4.2 99 0.0 CALM 0 0 0 0 1020.7 1020.7 0.0
23/07:00am 2.2 0.5 1.9 98 0.1 CALM 0 0 0 0 1020.5 1020.5 0.0
23/06:30am 2.1 0.4 1.8 98 0.1 CALM 0 0 0 0 1020.4 1020.4 0.0
23/06:00am 2.2 0.5 1.9 98 0.1 CALM 0 0 0 0 1020.2 1020.2 0.0
23/05:30am 2.4 0.7 2.1 98 0.1 CALM 0 0 0 0 1020.1 1020.1 0.0
23/05:00am 2.6 1.0 2.2 97 0.2 CALM 0 0 0 0 1020.0 1020.0 0.0
23/04:30am 2.8 1.2 2.4 97 0.2 CALM 0 0 0 0 1020.1 1020.1 0.0
23/04:00am 3.0 1.4 2.7 98 0.1 CALM 0 0 0 0 1020.2 1020.2 0.0
23/03:30am 3.1 1.5 2.7 97 0.2 CALM 0 0 0 0 1020.3 1020.3 0.0
23/03:00am 3.4 1.9 3.0 97 0.2 CALM 0 0 0 0 1020.4 1020.4 0.0
23/02:30am 3.5 2.0 3.1 97 0.2 CALM 0 0 0 0 1020.4 1020.4 0.0
23/02:00am 3.9 2.5 3.5 97 0.2 CALM 0 0 0 0 1020.6 1020.6 0.0
23/01:30am 4.2 2.8 3.8 97 0.2 CALM 0 0 0 0 1020.7 1020.7 0.0
23/01:00am 4.4 3.1 4.0 97 0.2 CALM 0 0 0 0 1020.9 1020.9 0.0
23/12:30am 4.6 3.3 4.0 96 0.3 CALM 0 0 0 0 1021.0 1021.0 0.0
23/12:00am 5.0 3.8 4.6 97 0.2 CALM 0 0 0 0 1021.2 1021.2 0.0
 
Date/Time
EST
Temp
°C
App
Temp
°C
Dew
Point
°C
Rel
Hum
%
Delta-T
°C
Wind Press
QNH
hPa
Press
MSL
hPa
Rain since
9am
mm
Dir  Spd
km/h
Gust
km/h
Spd
kts
Gust
kts
22/11:30pm 5.3 4.2 4.9 97 0.2 CALM 0 0 0 0 1021.3 1021.3 0.0
22/11:00pm 5.6 4.5 5.0 96 0.3 CALM 0 0 0 0 1021.5 1021.5 0.0
22/10:30pm 6.1 5.1 5.5 96 0.3 CALM 0 0 0 0 1021.8 1021.8 0.0
22/10:00pm 6.6 5.7 5.9 95 0.3 CALM 0 0 0 0 1021.9 1021.9 0.0
22/09:30pm 6.8 5.8 5.7 93 0.5 CALM 0 0 0 0 1021.9 1021.9 0.0
22/09:00pm 7.3 6.1 6.4 94 0.4 ENE 2 4 1 2 1021.8 1021.8 0.0
22/08:30pm 7.8 7.0 6.6 92 0.6 CALM 0 0 0 0 1021.8 1021.8 0.0
22/08:00pm 8.3 7.6 6.9 91 0.6 CALM 0 0 0 0 1021.6 1021.6 0.0
22/07:30pm 9.3 8.7 7.6 89 0.8 CALM 0 0 0 0 1021.3 1021.3 0.0
22/07:00pm 10.0 9.5 7.9 87 1.0 CALM 0 0 0 0 1021.0 1021.0 0.0
22/06:30pm 11.1 10.6 7.8 80 1.6 CALM 0 0 0 0 1020.7 1020.7 0.0
22/06:00pm 12.9 12.4 8.0 72 2.4 CALM 0 0 0 0 1020.2 1020.2 0.0
22/05:30pm 15.0 14.4 7.3 60 3.8 CALM 0 4 0 2 1019.8 1019.8 0.0
22/05:00pm 16.4 14.6 7.3 55 4.5 E 6 11 3 6 1019.5 1019.5 0.0
22/04:30pm 17.1 14.9 6.3 49 5.3 E 7 11 4 6 1019.2 1019.2 0.0
22/04:00pm 17.7 15.8 7.7 52 5.0 E 7 13 4 7 1018.8 1018.8 0.0
22/03:30pm 18.1 15.8 7.5 50 5.4 E 9 17 5 9 1018.4 1018.4 0.0
22/03:00pm 18.5 16.8 8.2 51 5.3 E 7 13 4 7 1018.2 1018.2 0.0
22/02:30pm 18.7 16.8 8.9 53 5.1 E 9 17 5 9 1018.1 1018.1 0.0
22/02:00pm 18.5 16.1 8.7 53 5.1 E 11 20 6 11 1018.0 1018.0 0.0
22/01:30pm 19.2 17.3 7.6 47 5.9 E 7 15 4 8 1018.1 1018.1 0.0
22/01:00pm 18.9 16.7 5.4 41 6.6 ESE 6 13 3 7 1018.3 1018.3 0.0
22/12:30pm 18.9 16.6 5.0 40 6.7 ENE 6 11 3 6 1018.6 1018.6 0.0
22/12:00pm 18.6 16.3 5.8 43 6.3 ENE 7 13 4 7 1019.0 1019.0 0.0
22/11:30am 18.4 15.7 5.6 43 6.2 NNE 9 13 5 7 1019.4 1019.4 0.0
22/11:00am 17.8 16.1 7.5 51 5.2 ESE 6 9 3 5 1019.6 1019.6 0.0
22/10:30am 17.4 15.3 6.0 47 5.6 SE 6 9 3 5 1019.9 1019.9 0.0
22/10:00am 16.8 15.3 8.5 58 4.2 W 6 9 3 5 1019.8 1019.8 0.0
22/09:30am 15.9 14.4 8.6 62 3.7 SSW 6 9 3 5 1019.8 1019.8 0.0
22/09:00am 14.9 14.3 7.5 61 3.6 CALM 0 4 0 2 1019.8 1019.8 0.0
22/08:30am 12.1 11.5 7.2 72 2.4 CALM 0 0 0 0 1019.6 1019.6 0.0
22/08:00am 8.8 8.2 7.4 91 0.7 CALM 0 0 0 0 1019.5 1019.5 0.0
22/07:30am 7.4 6.7 7.0 97 0.2 CALM 0 0 0 0 1019.3 1019.3 0.0
22/07:00am 5.6 4.5 5.0 96 0.3 CALM 0 0 0 0 1019.0 1019.0 0.0
22/06:30am 6.1 5.1 5.4 95 0.3 CALM 0 0 0 0 1018.6 1018.6 0.0
22/06:00am 6.6 5.7 6.0 96 0.3 CALM 0 0 0 0 1018.2 1018.2 0.0
22/05:30am 6.7 5.8 6.0 95 0.3 CALM 0 0 0 0 1017.9 1017.9 0.0
22/05:00am 6.8 5.9 6.1 95 0.3 CALM 0 0 0 0 1017.8 1017.8 0.0
22/04:30am 6.8 5.9 6.1 95 0.3 CALM 0 0 0 0 1017.4 1017.4 0.0
22/04:00am 7.3 6.5 6.4 94 0.4 CALM 0 0 0 0 1017.1 1017.1 0.0
22/03:30am 7.6 6.8 6.7 94 0.4 CALM 0 0 0 0 1017.0 1017.0 0.0
22/03:00am 7.6 6.8 6.7 94 0.4 CALM 0 0 0 0 1016.8 1016.8 0.0
22/02:30am 7.6 6.8 6.5 93 0.5 CALM 0 0 0 0 1017.0 1017.0 0.0
22/02:00am 7.8 7.0 6.4 91 0.6 CALM 0 0 0 0 1017.3 1017.3 0.0
22/01:30am 8.0 7.2 6.6 91 0.6 CALM 0 0 0 0 1017.6 1017.6 0.0
22/01:00am 8.3 7.6 7.1 92 0.6 CALM 0 0 0 0 1017.9 1017.9 0.0
22/12:30am 8.3 7.6 7.1 92 0.6 CALM 0 4 0 2 1018.1 1018.1 0.0
22/12:00am 8.5 7.9 7.3 92 0.6 CALM 0 0 0 0 1018.0 1018.0 0.0
 
Date/Time
EST
Temp
°C
App
Temp
°C
Dew
Point
°C
Rel
Hum
%
Delta-T
°C
Wind Press
QNH
hPa
Press
MSL
hPa
Rain since
9am
mm
Dir  Spd
km/h
Gust
km/h
Spd
kts
Gust
kts
21/11:30pm 8.4 7.7 6.9 90 0.7 CALM 0 0 0 0 1018.3 1018.3 0.0
21/11:00pm 8.5 7.8 7.0 90 0.7 CALM 0 0 0 0 1018.5 1018.5 0.0
21/10:30pm 9.3 8.7 7.6 89 0.8 CALM 0 2 0 1 1018.5 1018.5 0.0
21/10:00pm 9.9 9.4 7.8 87 1.0 CALM 0 0 0 0 1018.4 1018.4 0.0
21/09:30pm 10.0 9.6 8.1 88 0.9 CALM 0 0 0 0 1018.3 1018.3 0.0
21/09:00pm 10.4 9.9 7.8 84 1.2 CALM 0 0 0 0 1018.0 1018.0 0.0
21/08:30pm 10.9 10.4 7.8 81 1.5 CALM 0 0 0 0 1017.6 1017.6 0.0
21/08:00pm 11.6 11.1 7.9 78 1.8 CALM 0 0 0 0 1017.5 1017.5 0.0
21/07:30pm 12.5 11.2 7.8 73 2.3 N 4 6 2 3 1017.4 1017.4 0.0
21/07:00pm 12.8 11.6 7.9 72 2.4 NNE 4 7 2 4 1017.2 1017.2 0.0
21/06:30pm 13.3 12.2 7.1 66 3.0 NNE 2 6 1 3 1017.1 1017.1 0.0
21/06:00pm 13.8 12.6 6.4 61 3.5 NE 2 7 1 4 1016.9 1016.9 0.0
21/05:30pm 14.3 12.7 6.4 59 3.8 NE 4 7 2 4 1016.5 1016.5 0.0
21/05:00pm 14.3 13.1 6.6 60 3.7 NE 2 6 1 3 1016.2 1016.2 0.0

Other Formats:

Comma delimited format used in spreadsheet applications
http://www.bom.gov.au/fwo/IDN60801/IDN60801.95767.axf

JavaScript Object Notation format (JSON) in row-major order
http://www.bom.gov.au/fwo/IDN60801/IDN60801.95767.json